Time;durP1;ratioP1;P1;durP2;ratioP2;P2;SDS_P1;SDS_P2;PMS_P1;PMS_P2;Temp;Humidity;BMP_temperature;BMP_pressure;BME280_temperature;BME280_humidity;BME280_pressure;Samples;Min_cycle;Max_cycle;Signal;HPM_P1;HPM_P2
2023/07/27 00:00:47;;;;;;;9.65;1.25;;;;;;;;;;5035390;28;20552;-65
2023/07/27 00:03:13;;;;;;;2.50;1.40;;;;;;;;;;5035622;28;20014;-65
2023/07/27 00:05:40;;;;;;;3.60;1.27;;;;;;;;;;5066940;28;20508;-64
2023/07/27 00:08:06;;;;;;;2.83;1.30;;;;;;;;;;5067354;28;20021;-65
2023/07/27 00:10:32;;;;;;;3.63;1.58;;;;;;;;;;5034852;28;20444;-65
2023/07/27 00:12:58;;;;;;;2.85;1.40;;;;;;;;;;5047305;28;20028;-64
2023/07/27 00:15:25;;;;;;;4.05;1.35;;;;;;;;;;5055494;28;20033;-65
2023/07/27 00:17:51;;;;;;;1.67;1.15;;;;;;;;;;5054979;28;20031;-65
2023/07/27 00:20:18;;;;;;;4.68;1.38;;;;;;;;;;5054916;28;20482;-65
2023/07/27 00:22:44;;;;;;;2.60;1.30;;;;;;;;;;5054918;28;20507;-65
2023/07/27 00:25:10;;;;;;;4.50;1.65;;;;;;;;;;5054692;28;20032;-65
2023/07/27 00:27:36;;;;;;;6.85;1.40;;;;;;;;;;5054919;28;20017;-65
2023/07/27 00:30:03;;;;;;;3.55;1.45;;;;;;;;;;5053771;28;20035;-65
2023/07/27 00:32:29;;;;;;;2.50;1.30;;;;;;;;;;5054736;28;20045;-65
2023/07/27 00:34:56;;;;;;;5.43;1.40;;;;;;;;;;5054576;28;20037;-65
2023/07/27 00:37:22;;;;;;;3.90;1.40;;;;;;;;;;5054663;28;20513;-65
2023/07/27 00:39:48;;;;;;;4.05;1.30;;;;;;;;;;5054454;28;20091;-65
2023/07/27 00:42:15;;;;;;;7.65;1.55;;;;;;;;;;5054288;28;20110;-65
2023/07/27 00:44:41;;;;;;;5.68;1.33;;;;;;;;;;5054582;28;20039;-65
2023/07/27 00:47:07;;;;;;;7.05;1.50;;;;;;;;;;5054734;28;20028;-65
2023/07/27 00:49:34;;;;;;;5.35;1.30;;;;;;;;;;5054544;28;20023;-65
2023/07/27 00:52:05;;;;;;;3.05;1.50;;;;;;;;;;5054263;28;20031;-65
2023/07/27 00:54:32;;;;;;;4.10;1.58;;;;;;;;;;5053872;28;20037;-65
2023/07/27 00:56:59;;;;;;;3.42;1.52;;;;;;;;;;5054366;28;20017;-65
2023/07/27 00:59:25;;;;;;;1.60;1.20;;;;;;;;;;5054275;28;20029;-65
2023/07/27 01:01:52;;;;;;;6.80;1.60;;;;;;;;;;5054071;28;20381;-65
2023/07/27 01:04:18;;;;;;;2.30;1.48;;;;;;;;;;5054339;28;20025;-65
2023/07/27 01:06:44;;;;;;;3.88;1.30;;;;;;;;;;5054105;28;20093;-65
2023/07/27 01:09:11;;;;;;;2.10;1.30;;;;;;;;;;5086197;28;20029;-65
2023/07/27 01:11:46;;;;;;;3.70;1.60;;;;;;;;;;5053778;28;20486;-64
2023/07/27 01:14:32;;;;;;;4.03;1.50;;;;;;;;;;5053619;28;20040;-65
2023/07/27 01:17:17;;;;;;;2.97;1.33;;;;;;;;;;5053814;28;20023;-65
2023/07/27 01:20:02;;;;;;;3.45;1.40;;;;;;;;;;5053577;28;20031;-64
2023/07/27 01:22:31;;;;;;;4.97;1.42;;;;;;;;;;5052398;28;20029;-64
2023/07/27 01:25:03;;;;;;;1.70;1.40;;;;;;;;;;5053686;28;20021;-64
2023/07/27 01:27:48;;;;;;;2.88;1.48;;;;;;;;;;5053577;28;20021;-64
2023/07/27 01:30:29;;;;;;;2.40;1.40;;;;;;;;;;5053376;28;20481;-65
2023/07/27 01:32:58;;;;;;;3.55;1.48;;;;;;;;;;5053306;28;20043;-65
2023/07/27 01:35:27;;;;;;;3.15;1.50;;;;;;;;;;5053640;28;20037;-65
2023/07/27 01:37:55;;;;;;;2.50;1.20;;;;;;;;;;5051862;28;20029;-65
2023/07/27 01:40:22;;;;;;;3.75;1.40;;;;;;;;;;5053594;28;20041;-65
2023/07/27 01:42:49;;;;;;;5.70;1.38;;;;;;;;;;5053250;28;20378;-65
2023/07/27 01:45:16;;;;;;;3.25;1.20;;;;;;;;;;5052307;28;20039;-65
2023/07/27 01:47:44;;;;;;;5.35;1.58;;;;;;;;;;5053233;28;20031;-65
2023/07/27 01:50:12;;;;;;;1.55;1.20;;;;;;;;;;5053061;28;20025;-65
2023/07/27 01:52:39;;;;;;;3.28;1.60;;;;;;;;;;5052668;28;20021;-65
2023/07/27 01:55:06;;;;;;;3.85;1.50;;;;;;;;;;5053119;28;20039;-65
2023/07/27 01:57:33;;;;;;;2.97;1.58;;;;;;;;;;5053095;28;20028;-65
2023/07/27 01:59:59;;;;;;;2.38;1.30;;;;;;;;;;5053337;28;20028;-65
2023/07/27 02:02:25;;;;;;;4.22;1.20;;;;;;;;;;5053286;28;20017;-65
2023/07/27 02:04:52;;;;;;;2.47;1.40;;;;;;;;;;5052947;28;20031;-65
2023/07/27 02:07:18;;;;;;;2.75;1.48;;;;;;;;;;5052956;28;20029;-65
2023/07/27 02:09:45;;;;;;;2.33;1.42;;;;;;;;;;5053302;28;20017;-65
2023/07/27 02:12:24;;;;;;;2.65;1.60;;;;;;;;;;5047254;28;20069;-65
2023/07/27 02:14:56;;;;;;;3.75;1.63;;;;;;;;;;5032771;28;20037;-64
2023/07/27 02:17:27;;;;;;;4.68;1.65;;;;;;;;;;5033106;28;20022;-65
2023/07/27 02:19:56;;;;;;;4.82;1.65;;;;;;;;;;5032464;28;20037;-65
2023/07/27 02:22:24;;;;;;;2.13;1.50;;;;;;;;;;5032401;28;20044;-65
2023/07/27 02:24:50;;;;;;;2.33;1.40;;;;;;;;;;5032735;28;20474;-65
2023/07/27 02:27:16;;;;;;;3.22;1.42;;;;;;;;;;5032698;28;20017;-65
2023/07/27 02:29:43;;;;;;;1.73;1.60;;;;;;;;;;5032898;28;20041;-64
2023/07/27 02:32:09;;;;;;;4.38;1.70;;;;;;;;;;5032319;28;20048;-65
2023/07/27 02:34:37;;;;;;;2.75;1.35;;;;;;;;;;5032328;28;20045;-65
2023/07/27 02:37:03;;;;;;;1.60;1.30;;;;;;;;;;5032546;28;20056;-65
2023/07/27 02:39:29;;;;;;;3.83;1.70;;;;;;;;;;5032677;28;20021;-64
2023/07/27 02:41:56;;;;;;;3.63;1.75;;;;;;;;;;5032552;28;20486;-65
2023/07/27 02:44:22;;;;;;;2.72;1.67;;;;;;;;;;5032709;28;20030;-65
2023/07/27 02:46:48;;;;;;;3.70;1.80;;;;;;;;;;5032631;28;20100;-65
2023/07/27 02:49:15;;;;;;;2.95;1.65;;;;;;;;;;5032479;28;20033;-65
2023/07/27 02:51:41;;;;;;;2.75;1.63;;;;;;;;;;5032469;28;20030;-65
2023/07/27 02:54:08;;;;;;;4.15;1.70;;;;;;;;;;5032558;28;20037;-64
2023/07/27 02:56:34;;;;;;;3.95;1.50;;;;;;;;;;5032355;28;20022;-64
2023/07/27 02:59:00;;;;;;;2.00;1.70;;;;;;;;;;5032665;28;20029;-65
2023/07/27 03:01:27;;;;;;;4.30;1.60;;;;;;;;;;5032708;28;20036;-64
2023/07/27 03:03:53;;;;;;;3.72;1.60;;;;;;;;;;5032033;28;20508;-64
2023/07/27 03:06:19;;;;;;;3.97;1.58;;;;;;;;;;5032745;28;20079;-65
2023/07/27 03:08:46;;;;;;;4.88;1.70;;;;;;;;;;5032296;28;20025;-65
2023/07/27 03:11:12;;;;;;;4.13;1.65;;;;;;;;;;5032705;28;20032;-65
2023/07/27 03:13:39;;;;;;;2.28;1.50;;;;;;;;;;5049243;28;20036;-65
2023/07/27 03:16:05;;;;;;;5.70;1.70;;;;;;;;;;5052157;28;20370;-64
2023/07/27 03:18:31;;;;;;;3.00;1.60;;;;;;;;;;5050923;28;20094;-64
2023/07/27 03:20:58;;;;;;;9.63;1.70;;;;;;;;;;5052018;28;20479;-65
2023/07/27 03:23:25;;;;;;;2.38;1.50;;;;;;;;;;5052074;28;20029;-64
2023/07/27 03:25:51;;;;;;;4.18;1.98;;;;;;;;;;5052327;28;20017;-64
2023/07/27 03:28:17;;;;;;;2.83;1.50;;;;;;;;;;5052281;28;20025;-64
2023/07/27 03:30:43;;;;;;;4.72;1.90;;;;;;;;;;5052377;28;20017;-64
2023/07/27 03:33:10;;;;;;;3.88;1.63;;;;;;;;;;5055489;28;20040;-65
2023/07/27 03:35:36;;;;;;;3.58;1.67;;;;;;;;;;5055691;28;20041;-64
2023/07/27 03:38:02;;;;;;;2.95;2.03;;;;;;;;;;5054873;28;20031;-65
2023/07/27 03:40:29;;;;;;;2.58;1.70;;;;;;;;;;5055780;28;20033;-65
2023/07/27 03:42:55;;;;;;;3.38;1.75;;;;;;;;;;5055472;28;20021;-65
2023/07/27 03:45:22;;;;;;;3.33;1.58;;;;;;;;;;5056065;28;20029;-64
2023/07/27 03:47:48;;;;;;;2.25;1.67;;;;;;;;;;5055215;28;20028;-64
2023/07/27 03:50:14;;;;;;;4.20;1.70;;;;;;;;;;5055715;28;20033;-65
2023/07/27 03:52:41;;;;;;;3.75;1.90;;;;;;;;;;5055357;28;20021;-65
2023/07/27 03:55:07;;;;;;;2.80;1.60;;;;;;;;;;5055298;28;20029;-65
2023/07/27 03:57:34;;;;;;;3.08;1.65;;;;;;;;;;5055357;28;20389;-64
2023/07/27 04:00:00;;;;;;;5.13;1.90;;;;;;;;;;5055287;28;20024;-65
2023/07/27 04:02:27;;;;;;;3.42;1.83;;;;;;;;;;5055158;28;20017;-65
2023/07/27 04:04:54;;;;;;;6.28;1.92;;;;;;;;;;5055450;28;20025;-65
2023/07/27 04:07:20;;;;;;;3.58;1.70;;;;;;;;;;5055168;28;20027;-65
2023/07/27 04:09:47;;;;;;;3.22;1.95;;;;;;;;;;5055111;28;20031;-65
2023/07/27 04:12:13;;;;;;;3.28;1.75;;;;;;;;;;5054992;28;20025;-65
2023/07/27 04:14:40;;;;;;;3.05;1.77;;;;;;;;;;5055201;28;20041;-64
2023/07/27 04:17:06;;;;;;;2.78;1.60;;;;;;;;;;5054629;28;20067;-64
2023/07/27 04:19:34;;;;;;;2.67;1.35;;;;;;;;;;5055357;28;20033;-65
2023/07/27 04:22:01;;;;;;;2.83;1.80;;;;;;;;;;5055131;28;20053;-65
2023/07/27 04:24:27;;;;;;;3.33;1.80;;;;;;;;;;5054805;28;20021;-64
2023/07/27 04:26:53;;;;;;;2.65;1.70;;;;;;;;;;5054741;28;20469;-65
2023/07/27 04:29:19;;;;;;;3.33;1.80;;;;;;;;;;5055188;28;20032;-65
2023/07/27 04:31:46;;;;;;;4.97;1.88;;;;;;;;;;5054228;28;20045;-64
2023/07/27 04:34:12;;;;;;;5.40;2.17;;;;;;;;;;5054888;28;20037;-65
2023/07/27 04:36:39;;;;;;;2.58;1.80;;;;;;;;;;5054703;28;20531;-65
2023/07/27 04:39:05;;;;;;;3.90;2.08;;;;;;;;;;5054664;28;20029;-64
2023/07/27 04:41:31;;;;;;;4.32;2.00;;;;;;;;;;5054213;28;20021;-64
2023/07/27 04:43:58;;;;;;;5.53;2.03;;;;;;;;;;5054344;28;20021;-64
2023/07/27 04:46:24;;;;;;;4.05;2.00;;;;;;;;;;5054085;28;20025;-65
2023/07/27 04:48:50;;;;;;;2.42;1.77;;;;;;;;;;5054459;28;20389;-64
2023/07/27 04:51:17;;;;;;;6.40;2.13;;;;;;;;;;5054371;28;20027;-65
2023/07/27 04:53:43;;;;;;;2.42;1.63;;;;;;;;;;5054184;28;20424;-65
2023/07/27 04:56:09;;;;;;;4.32;2.00;;;;;;;;;;5054467;28;20029;-64
2023/07/27 04:58:35;;;;;;;3.78;1.60;;;;;;;;;;5054357;28;20028;-65
2023/07/27 05:01:02;;;;;;;2.28;1.60;;;;;;;;;;5053868;28;20025;-64
2023/07/27 05:03:28;;;;;;;3.83;1.55;;;;;;;;;;5054499;28;20029;-65
2023/07/27 05:05:54;;;;;;;3.00;2.08;;;;;;;;;;5054354;28;20051;-65
2023/07/27 05:08:21;;;;;;;2.47;1.60;;;;;;;;;;5054229;28;20024;-65
2023/07/27 05:10:47;;;;;;;2.17;1.80;;;;;;;;;;5054065;28;20036;-64
2023/07/27 05:13:13;;;;;;;2.50;1.80;;;;;;;;;;5040053;28;20505;-64
2023/07/27 05:15:40;;;;;;;5.35;1.80;;;;;;;;;;5033906;28;20045;-65
2023/07/27 05:18:07;;;;;;;4.75;2.20;;;;;;;;;;5033922;28;20094;-64
2023/07/27 05:20:34;;;;;;;1.98;1.70;;;;;;;;;;5034135;28;20033;-65
2023/07/27 05:23:00;;;;;;;2.83;1.80;;;;;;;;;;5033879;28;20043;-65
2023/07/27 05:25:26;;;;;;;6.50;2.38;;;;;;;;;;5033937;28;20022;-65
2023/07/27 05:27:52;;;;;;;2.70;1.67;;;;;;;;;;5033606;28;20397;-64
2023/07/27 05:30:19;;;;;;;5.07;2.40;;;;;;;;;;5033454;28;20025;-64
2023/07/27 05:32:45;;;;;;;5.82;2.00;;;;;;;;;;5033435;28;20045;-65
2023/07/27 05:35:11;;;;;;;4.32;1.88;;;;;;;;;;5065778;28;20041;-65
2023/07/27 05:37:39;;;;;;;6.78;2.50;;;;;;;;;;5033852;28;20034;-65
2023/07/27 05:40:06;;;;;;;3.97;1.88;;;;;;;;;;5033654;28;20029;-65
2023/07/27 05:42:33;;;;;;;4.20;1.73;;;;;;;;;;5033766;28;20033;-65
2023/07/27 05:44:59;;;;;;;5.07;1.77;;;;;;;;;;5033112;28;20036;-64
2023/07/27 05:47:26;;;;;;;3.28;1.92;;;;;;;;;;5033582;28;20032;-65
2023/07/27 05:49:52;;;;;;;4.80;2.10;;;;;;;;;;5033277;28;20379;-64
2023/07/27 05:52:19;;;;;;;3.38;2.10;;;;;;;;;;5033433;28;20022;-65
2023/07/27 05:54:45;;;;;;;6.32;2.20;;;;;;;;;;5032398;28;20440;-65
2023/07/27 05:57:11;;;;;;;5.90;2.10;;;;;;;;;;5033114;28;20417;-64
2023/07/27 05:59:38;;;;;;;9.73;2.30;;;;;;;;;;5033214;28;20025;-65
2023/07/27 06:02:04;;;;;;;7.43;2.22;;;;;;;;;;5033095;28;20025;-65
2023/07/27 06:04:30;;;;;;;3.33;2.42;;;;;;;;;;5033193;28;20026;-64
2023/07/27 06:06:57;;;;;;;6.20;2.20;;;;;;;;;;5031728;28;20071;-65
2023/07/27 06:09:24;;;;;;;9.13;2.60;;;;;;;;;;5032854;28;20024;-65
2023/07/27 06:11:51;;;;;;;6.70;2.80;;;;;;;;;;5035191;28;20041;-65
2023/07/27 06:14:17;;;;;;;5.57;2.30;;;;;;;;;;5049722;28;20033;-64
2023/07/27 06:16:44;;;;;;;3.15;2.05;;;;;;;;;;5052093;28;20033;-63
2023/07/27 06:19:10;;;;;;;6.25;2.40;;;;;;;;;;5052444;28;20028;-63
2023/07/27 06:21:37;;;;;;;4.15;2.30;;;;;;;;;;5052303;28;20029;-63
2023/07/27 06:24:03;;;;;;;3.88;2.20;;;;;;;;;;5052469;28;20028;-63
2023/07/27 06:26:29;;;;;;;7.38;2.08;;;;;;;;;;5052501;28;20031;-63
2023/07/27 06:28:55;;;;;;;3.50;2.40;;;;;;;;;;5051843;28;20036;-63
2023/07/27 06:31:22;;;;;;;4.90;2.30;;;;;;;;;;5052136;28;20047;-63
2023/07/27 06:33:48;;;;;;;6.30;2.60;;;;;;;;;;5052024;28;20037;-63
2023/07/27 06:36:15;;;;;;;4.20;2.40;;;;;;;;;;5052014;28;20033;-63
2023/07/27 06:38:41;;;;;;;7.30;2.45;;;;;;;;;;5052479;28;20024;-64
2023/07/27 06:41:07;;;;;;;6.38;2.47;;;;;;;;;;5051994;28;20035;-63
2023/07/27 06:43:33;;;;;;;4.40;2.03;;;;;;;;;;5051883;28;20019;-63
2023/07/27 06:46:00;;;;;;;5.93;1.98;;;;;;;;;;5048607;28;20025;-63
2023/07/27 06:48:26;;;;;;;4.68;2.30;;;;;;;;;;5051401;28;20033;-63
2023/07/27 06:50:53;;;;;;;4.28;2.20;;;;;;;;;;5051763;28;20078;-63
2023/07/27 06:53:19;;;;;;;3.70;1.90;;;;;;;;;;5051899;28;20027;-64
2023/07/27 06:55:45;;;;;;;2.08;1.80;;;;;;;;;;5051041;28;20040;-64
2023/07/27 06:58:12;;;;;;;6.22;2.05;;;;;;;;;;5051311;28;20029;-64
2023/07/27 07:00:38;;;;;;;5.25;2.25;;;;;;;;;;5051650;28;20029;-63
2023/07/27 07:03:05;;;;;;;4.10;1.98;;;;;;;;;;5051281;28;20558;-64
2023/07/27 07:05:31;;;;;;;8.23;2.10;;;;;;;;;;5053243;28;20028;-64
2023/07/27 07:07:57;;;;;;;4.85;1.90;;;;;;;;;;5055618;28;20078;-63
2023/07/27 07:10:24;;;;;;;5.88;1.95;;;;;;;;;;5055217;28;20427;-63
2023/07/27 07:12:50;;;;;;;5.85;2.00;;;;;;;;;;5054157;28;20039;-64
2023/07/27 07:15:17;;;;;;;3.17;1.90;;;;;;;;;;5053596;28;20040;-64
2023/07/27 07:17:43;;;;;;;4.05;2.30;;;;;;;;;;5054451;28;20074;-64
2023/07/27 07:20:10;;;;;;;6.57;1.90;;;;;;;;;;5052757;28;20486;-64
2023/07/27 07:22:37;;;;;;;3.67;2.10;;;;;;;;;;5053381;28;20033;-64
2023/07/27 07:25:03;;;;;;;4.70;2.05;;;;;;;;;;5053974;28;20036;-63
2023/07/27 07:27:30;;;;;;;5.10;1.65;;;;;;;;;;5053791;28;20489;-63
2023/07/27 07:29:56;;;;;;;3.28;1.98;;;;;;;;;;5054899;28;20028;-64
2023/07/27 07:32:22;;;;;;;10.88;1.90;;;;;;;;;;5054339;28;20045;-63
2023/07/27 07:34:51;;;;;;;6.25;2.00;;;;;;;;;;5054713;28;20040;-64
2023/07/27 07:37:18;;;;;;;5.10;2.00;;;;;;;;;;5053482;28;20020;-64
2023/07/27 07:39:44;;;;;;;3.33;1.90;;;;;;;;;;5054402;28;20035;-64
2023/07/27 07:42:10;;;;;;;2.97;1.92;;;;;;;;;;5054242;28;20025;-64
2023/07/27 07:44:37;;;;;;;3.95;2.00;;;;;;;;;;5054420;28;20029;-64
2023/07/27 07:47:03;;;;;;;3.55;1.80;;;;;;;;;;5055915;28;20492;-64
2023/07/27 07:49:29;;;;;;;3.83;1.70;;;;;;;;;;5064936;28;20025;-64
2023/07/27 07:51:56;;;;;;;3.72;2.03;;;;;;;;;;5053624;28;20028;-64
2023/07/27 07:54:22;;;;;;;3.25;1.80;;;;;;;;;;5053017;28;20094;-64
2023/07/27 07:56:48;;;;;;;3.35;1.50;;;;;;;;;;5054083;28;20017;-64
2023/07/27 07:59:15;;;;;;;3.22;1.80;;;;;;;;;;5054325;28;20036;-65
2023/07/27 08:01:42;;;;;;;2.60;1.75;;;;;;;;;;5054079;28;20028;-64
2023/07/27 08:04:08;;;;;;;2.35;1.50;;;;;;;;;;5053902;28;20078;-65
2023/07/27 08:06:35;;;;;;;4.03;1.55;;;;;;;;;;5053850;28;20029;-64
2023/07/27 08:09:01;;;;;;;3.88;1.65;;;;;;;;;;5053873;28;20025;-65
2023/07/27 08:11:27;;;;;;;1.30;1.20;;;;;;;;;;5052804;28;20497;-64
2023/07/27 08:13:55;;;;;;;2.38;1.60;;;;;;;;;;5053677;28;20078;-64
2023/07/27 08:16:21;;;;;;;2.20;1.23;;;;;;;;;;5053530;28;20029;-64
2023/07/27 08:18:48;;;;;;;4.82;1.40;;;;;;;;;;5053761;28;20013;-65
2023/07/27 08:21:14;;;;;;;1.70;1.30;;;;;;;;;;5054204;28;20032;-63
2023/07/27 08:23:41;;;;;;;1.65;1.02;;;;;;;;;;5053768;28;20470;-65
2023/07/27 08:26:09;;;;;;;1.02;0.93;;;;;;;;;;5053771;28;20039;-62
2023/07/27 08:28:36;;;;;;;1.20;1.10;;;;;;;;;;5052052;28;20025;-65
2023/07/27 08:31:03;;;;;;;0.90;0.90;;;;;;;;;;5054003;28;20033;-63
2023/07/27 08:33:29;;;;;;;1.35;1.25;;;;;;;;;;5052662;28;20040;-64
2023/07/27 08:35:57;;;;;;;4.60;1.05;;;;;;;;;;5052363;28;20055;-64
2023/07/27 08:38:23;;;;;;;1.17;0.90;;;;;;;;;;5053769;28;20017;-64
2023/07/27 08:41:02;;;;;;;1.52;1.20;;;;;;;;;;5053975;28;20093;-65
2023/07/27 08:43:29;;;;;;;1.33;1.23;;;;;;;;;;5053942;28;20017;-65
2023/07/27 08:45:55;;;;;;;6.65;1.10;;;;;;;;;;5053767;28;20013;-63
2023/07/27 08:48:24;;;;;;;3.03;0.90;;;;;;;;;;5053781;28;20110;-64
2023/07/27 08:50:50;;;;;;;3.05;1.33;;;;;;;;;;5053898;28;20501;-65
2023/07/27 08:53:16;;;;;;;2.05;1.27;;;;;;;;;;5053370;28;20033;-64
2023/07/27 08:55:43;;;;;;;1.05;0.90;;;;;;;;;;5052986;28;20366;-64
2023/07/27 08:58:10;;;;;;;1.38;1.00;;;;;;;;;;5053877;28;20025;-64
2023/07/27 09:00:38;;;;;;;1.38;1.05;;;;;;;;;;5053599;28;20036;-65
2023/07/27 09:03:07;;;;;;;1.20;1.00;;;;;;;;;;5053634;28;20051;-65
2023/07/27 09:05:40;;;;;;;2.90;0.90;;;;;;;;;;5052548;28;20025;-65
2023/07/27 09:08:10;;;;;;;1.00;1.00;;;;;;;;;;5052968;28;20025;-65
2023/07/27 09:10:40;;;;;;;0.93;0.90;;;;;;;;;;5053504;28;20499;-65
2023/07/27 09:13:07;;;;;;;0.98;0.80;;;;;;;;;;5053325;28;20058;-64
2023/07/27 09:15:34;;;;;;;0.90;0.90;;;;;;;;;;5052963;28;20062;-65
2023/07/27 09:18:01;;;;;;;0.85;0.75;;;;;;;;;;5053458;28;20021;-65
2023/07/27 09:20:31;;;;;;;1.73;0.77;;;;;;;;;;5051128;28;20074;-65
2023/07/27 09:22:57;;;;;;;1.23;1.00;;;;;;;;;;5052137;28;20039;-64
2023/07/27 09:25:24;;;;;;;1.50;1.10;;;;;;;;;;5050400;28;20382;-65
2023/07/27 09:27:54;;;;;;;0.88;0.80;;;;;;;;;;5051851;28;20497;-65
2023/07/27 09:30:21;;;;;;;1.58;1.05;;;;;;;;;;5052102;28;20062;-65
2023/07/27 09:32:48;;;;;;;1.17;1.05;;;;;;;;;;5051846;28;20045;-65
2023/07/27 09:35:15;;;;;;;1.67;1.00;;;;;;;;;;5051972;28;20041;-64
2023/07/27 09:37:43;;;;;;;1.23;0.85;;;;;;;;;;5051466;28;20047;-65
2023/07/27 09:40:12;;;;;;;0.95;0.93;;;;;;;;;;5052340;28;20025;-63
2023/07/27 09:42:40;;;;;;;0.90;0.90;;;;;;;;;;5051813;28;20022;-64
2023/07/27 09:45:06;;;;;;;1.60;1.02;;;;;;;;;;5052043;28;20025;-65
2023/07/27 09:47:33;;;;;;;2.40;1.00;;;;;;;;;;5051439;28;20020;-65
2023/07/27 09:50:00;;;;;;;0.85;0.85;;;;;;;;;;5052557;28;20482;-64
2023/07/27 09:52:27;;;;;;;1.08;1.00;;;;;;;;;;5071861;28;20499;-64
2023/07/27 09:54:57;;;;;;;4.22;1.00;;;;;;;;;;5070968;28;20048;-65
2023/07/27 09:57:24;;;;;;;1.33;0.80;;;;;;;;;;5062307;28;20386;-64
2023/07/27 09:59:51;;;;;;;1.20;0.80;;;;;;;;;;5051920;28;20039;-65
2023/07/27 10:02:17;;;;;;;1.10;1.00;;;;;;;;;;5051531;28;20023;-64
2023/07/27 10:04:49;;;;;;;0.80;0.80;;;;;;;;;;5051330;28;20482;-64
2023/07/27 10:07:36;;;;;;;1.65;0.90;;;;;;;;;;5071112;28;20051;-64
2023/07/27 10:10:34;;;;;;;1.10;1.00;;;;;;;;;;5070858;28;20378;-64
2023/07/27 10:13:07;;;;;;;1.10;0.90;;;;;;;;;;5058874;28;20025;-65
2023/07/27 10:15:39;;;;;;;2.55;1.10;;;;;;;;;;5051134;28;20041;-65
2023/07/27 10:18:05;;;;;;;0.88;0.80;;;;;;;;;;5051309;28;20024;-65
2023/07/27 10:20:35;;;;;;;1.00;0.85;;;;;;;;;;5051161;28;20021;-65
2023/07/27 10:23:12;;;;;;;2.00;0.90;;;;;;;;;;5051696;28;20029;-64
2023/07/27 10:25:56;;;;;;;1.20;0.93;;;;;;;;;;5051300;28;20031;-65
2023/07/27 10:28:39;;;;;;;0.80;0.80;;;;;;;;;;5051535;28;20029;-65
2023/07/27 10:31:14;;;;;;;0.93;0.90;;;;;;;;;;5050809;28;20394;-65
2023/07/27 10:33:53;;;;;;;1.45;1.00;;;;;;;;;;5050649;28;20025;-65
2023/07/27 10:36:25;;;;;;;1.02;0.80;;;;;;;;;;5051061;28;20047;-65
2023/07/27 10:38:53;;;;;;;1.13;1.05;;;;;;;;;;5051394;28;20028;-65
2023/07/27 10:41:24;;;;;;;1.20;1.10;;;;;;;;;;5050735;28;20474;-65
2023/07/27 10:44:09;;;;;;;1.88;1.20;;;;;;;;;;5050760;28;20029;-64
2023/07/27 10:46:36;;;;;;;1.30;1.20;;;;;;;;;;5051790;28;20013;-64
2023/07/27 10:49:12;;;;;;;1.05;1.02;;;;;;;;;;5051754;28;20507;-64
2023/07/27 10:51:39;;;;;;;1.70;1.20;;;;;;;;;;5052455;28;20025;-65
2023/07/27 10:54:05;;;;;;;1.00;1.00;;;;;;;;;;5052113;28;20071;-64
2023/07/27 10:56:32;;;;;;;1.10;1.00;;;;;;;;;;5051775;28;20492;-65
2023/07/27 10:58:59;;;;;;;1.30;1.20;;;;;;;;;;5052123;28;20021;-65
2023/07/27 11:01:25;;;;;;;1.27;1.17;;;;;;;;;;5052339;28;20025;-65
2023/07/27 11:03:52;;;;;;;1.40;1.30;;;;;;;;;;5051767;28;20025;-64
2023/07/27 11:06:18;;;;;;;3.08;1.10;;;;;;;;;;5052042;28;20511;-65
2023/07/27 11:08:45;;;;;;;1.33;1.23;;;;;;;;;;5050491;28;20017;-64
2023/07/27 11:11:21;;;;;;;1.25;1.17;;;;;;;;;;5034842;28;20033;-65
2023/07/27 11:13:47;;;;;;;1.30;1.20;;;;;;;;;;5044858;28;20006;-64
2023/07/27 11:16:14;;;;;;;1.33;1.20;;;;;;;;;;5051053;28;20037;-64
2023/07/27 11:18:41;;;;;;;1.38;1.27;;;;;;;;;;5050664;28;20023;-64
2023/07/27 11:21:11;;;;;;;1.38;1.27;;;;;;;;;;5051174;28;20444;-65
2023/07/27 11:23:44;;;;;;;1.10;1.00;;;;;;;;;;5051377;28;20022;-64
2023/07/27 11:26:10;;;;;;;1.40;1.10;;;;;;;;;;5050229;28;20043;-64
2023/07/27 11:28:37;;;;;;;1.00;1.00;;;;;;;;;;5051396;28;20017;-65
2023/07/27 11:31:08;;;;;;;1.25;1.10;;;;;;;;;;5050507;28;20094;-64
2023/07/27 11:33:34;;;;;;;1.77;1.50;;;;;;;;;;5051176;28;20059;-65
2023/07/27 11:36:01;;;;;;;2.13;1.40;;;;;;;;;;5051238;28;20047;-65
2023/07/27 11:38:28;;;;;;;1.48;1.38;;;;;;;;;;5051471;28;20024;-64
2023/07/27 11:40:57;;;;;;;1.88;1.45;;;;;;;;;;5050673;28;20475;-65
2023/07/27 11:43:24;;;;;;;;;;;;;;;;;;5049484;28;20033;-65
2023/07/27 11:45:55;;;;;;;1.85;1.75;;;;;;;;;;5050457;28;19915;-65
2023/07/27 11:48:25;;;;;;;1.60;1.50;;;;;;;;;;5050685;28;20021;-65
2023/07/27 11:50:51;;;;;;;1.40;1.30;;;;;;;;;;5050888;28;20047;-65
2023/07/27 11:53:22;;;;;;;4.45;2.30;;;;;;;;;;5053226;28;20500;-65
2023/07/27 11:55:49;;;;;;;1.40;1.30;;;;;;;;;;5054061;28;20056;-65
2023/07/27 11:58:15;;;;;;;3.22;1.50;;;;;;;;;;5054255;28;20037;-65
2023/07/27 12:00:47;;;;;;;2.78;1.58;;;;;;;;;;5053705;28;20393;-65
2023/07/27 12:03:13;;;;;;;3.20;1.77;;;;;;;;;;5064135;28;20548;-65
2023/07/27 12:05:39;;;;;;;1.60;1.50;;;;;;;;;;5068691;28;20021;-65
2023/07/27 12:08:06;;;;;;;1.55;1.45;;;;;;;;;;5052348;28;20043;-64
2023/07/27 12:10:32;;;;;;;1.50;1.40;;;;;;;;;;5053720;28;20485;-65
2023/07/27 12:12:59;;;;;;;1.52;1.42;;;;;;;;;;5054480;28;20383;-66
2023/07/27 12:15:36;;;;;;;2.28;1.52;;;;;;;;;;5052507;28;20037;-65
2023/07/27 12:18:04;;;;;;;1.58;1.48;;;;;;;;;;5068125;28;20027;-65
2023/07/27 12:20:31;;;;;;;1.63;1.52;;;;;;;;;;5073670;28;20507;-65
2023/07/27 12:22:58;;;;;;;1.60;1.50;;;;;;;;;;5073408;28;20017;-65
2023/07/27 12:25:28;;;;;;;1.40;1.35;;;;;;;;;;5073420;28;20400;-65
2023/07/27 12:27:54;;;;;;;1.85;1.75;;;;;;;;;;5073175;28;20028;-64
2023/07/27 12:30:22;;;;;;;1.77;1.67;;;;;;;;;;5073061;28;20515;-63
2023/07/27 12:32:49;;;;;;;1.80;1.70;;;;;;;;;;5072965;28;20043;-65
2023/07/27 12:35:16;;;;;;;1.73;1.63;;;;;;;;;;5073248;28;20051;-65
2023/07/27 12:37:45;;;;;;;1.95;1.83;;;;;;;;;;5073222;28;20033;-66
2023/07/27 12:40:12;;;;;;;1.90;1.80;;;;;;;;;;5073286;28;20477;-66
2023/07/27 12:42:38;;;;;;;3.63;1.90;;;;;;;;;;5073041;28;20027;-66
2023/07/27 12:45:06;;;;;;;1.60;1.50;;;;;;;;;;5072817;28;20020;-66
2023/07/27 12:47:33;;;;;;;1.80;1.70;;;;;;;;;;5072407;28;20760;-66
2023/07/27 12:49:59;;;;;;;1.80;1.70;;;;;;;;;;5073335;28;20430;-66
2023/07/27 12:52:25;;;;;;;1.80;1.70;;;;;;;;;;5072882;28;20032;-66
2023/07/27 12:54:52;;;;;;;2.42;2.22;;;;;;;;;;5052930;28;20070;-65
2023/07/27 12:57:18;;;;;;;1.80;1.70;;;;;;;;;;5051438;28;20029;-66
2023/07/27 12:59:44;;;;;;;3.55;1.98;;;;;;;;;;5050235;28;20040;-66
2023/07/27 13:02:11;;;;;;;2.28;2.00;;;;;;;;;;5052539;28;20031;-66
2023/07/27 13:04:37;;;;;;;1.83;1.50;;;;;;;;;;5051493;28;20035;-65
2023/07/27 13:07:03;;;;;;;1.75;1.65;;;;;;;;;;5052303;28;20025;-66
2023/07/27 13:09:30;;;;;;;1.80;1.70;;;;;;;;;;5053002;28;20389;-66
2023/07/27 13:11:56;;;;;;;1.90;1.75;;;;;;;;;;5049415;28;20490;-64
2023/07/27 13:14:22;;;;;;;1.70;1.60;;;;;;;;;;5032438;28;20514;-65
2023/07/27 13:16:49;;;;;;;2.00;1.90;;;;;;;;;;5033299;28;20086;-65
2023/07/27 13:19:15;;;;;;;2.10;1.88;;;;;;;;;;5032973;28;20043;-65
2023/07/27 13:21:41;;;;;;;2.65;2.28;;;;;;;;;;5032790;28;20032;-66
2023/07/27 13:24:07;;;;;;;2.75;1.92;;;;;;;;;;5033037;28;20025;-65
2023/07/27 13:26:34;;;;;;;2.28;2.08;;;;;;;;;;5032809;28;20025;-65
2023/07/27 13:29:00;;;;;;;2.22;1.85;;;;;;;;;;5032430;28;20059;-66
2023/07/27 13:31:27;;;;;;;3.05;1.75;;;;;;;;;;5032877;28;20060;-65
2023/07/27 13:33:53;;;;;;;2.75;2.17;;;;;;;;;;5031809;28;20047;-66
2023/07/27 13:36:19;;;;;;;2.40;1.88;;;;;;;;;;5051989;28;20086;-66
2023/07/27 13:38:46;;;;;;;4.00;2.33;;;;;;;;;;5052450;28;20035;-66
2023/07/27 13:41:12;;;;;;;1.70;1.60;;;;;;;;;;5072177;28;20029;-65
2023/07/27 13:43:39;;;;;;;3.17;1.80;;;;;;;;;;5071610;28;20029;-66
2023/07/27 13:46:06;;;;;;;1.83;1.73;;;;;;;;;;5071603;28;20031;-65
2023/07/27 13:48:32;;;;;;;2.28;2.10;;;;;;;;;;5069169;28;20503;-65
2023/07/27 13:50:58;;;;;;;1.90;1.80;;;;;;;;;;5050625;28;20023;-65
2023/07/27 13:53:26;;;;;;;1.77;1.67;;;;;;;;;;5052029;28;20032;-65
2023/07/27 13:55:53;;;;;;;1.77;1.67;;;;;;;;;;5051447;28;20478;-66
2023/07/27 13:58:19;;;;;;;2.10;2.00;;;;;;;;;;5051349;28;20562;-65
2023/07/27 14:00:46;;;;;;;2.90;1.90;;;;;;;;;;5052036;28;20017;-65
2023/07/27 14:03:13;;;;;;;2.45;2.20;;;;;;;;;;5051837;28;20021;-65
2023/07/27 14:05:39;;;;;;;1.83;1.73;;;;;;;;;;5050981;28;20039;-65
2023/07/27 14:08:06;;;;;;;3.17;2.00;;;;;;;;;;5051256;28;20029;-65
2023/07/27 14:10:32;;;;;;;2.28;1.77;;;;;;;;;;5051695;28;20032;-65
2023/07/27 14:12:58;;;;;;;2.00;1.90;;;;;;;;;;5051348;28;20031;-65
2023/07/27 14:15:25;;;;;;;5.03;2.05;;;;;;;;;;5050759;28;20033;-65
2023/07/27 14:17:51;;;;;;;1.90;1.73;;;;;;;;;;5051360;28;20037;-65
2023/07/27 14:20:18;;;;;;;1.95;1.85;;;;;;;;;;5050510;28;20025;-65
2023/07/27 14:22:44;;;;;;;2.10;1.90;;;;;;;;;;5051877;28;20066;-65
2023/07/27 14:25:10;;;;;;;2.03;1.88;;;;;;;;;;5050609;28;20816;-65
2023/07/27 14:27:36;;;;;;;2.35;2.10;;;;;;;;;;5051317;28;20021;-65
2023/07/27 14:30:03;;;;;;;4.07;2.00;;;;;;;;;;5051480;28;20021;-65
2023/07/27 14:32:30;;;;;;;1.77;1.67;;;;;;;;;;5051329;28;20421;-65
2023/07/27 14:34:57;;;;;;;2.30;2.10;;;;;;;;;;5050376;28;20057;-65
2023/07/27 14:37:24;;;;;;;2.15;1.92;;;;;;;;;;5051463;28;20493;-65
2023/07/27 14:39:50;;;;;;;2.65;2.10;;;;;;;;;;5050731;28;20028;-65
2023/07/27 14:42:17;;;;;;;2.88;1.80;;;;;;;;;;5051596;28;20035;-65
2023/07/27 14:44:43;;;;;;;3.67;2.08;;;;;;;;;;5051700;28;20049;-65